首页
METAR-TAF:

METAR-TAF

机场 :

哈里逊, 阿肯色州, 美国

纬度: 36-15-42N, 经度: 093-09-17W, 海拔: 416米

当前天气观测

该预报发布于54分钟前的21:53 UTC
风速5节,风向东南
温度 12°C
湿度 24%
气压 1029 hPa
能見度: 16.1公里
天空无云

METAR: KHRO 112153Z AUTO 13005KT 10SM CLR 12/M08 A3040 RMK AO2 SLP300 T01221083

时间: 16:47 (22:47 UTC)

预报

该预报发布于5小时和27分钟前的17:20 UTC
预报有效从11日的 18点(UTC)到 12日的 18点(UTC)
风速6节,风向
能見度: 10公里
天空无云

TAF: KHRO 111720Z 1118/1218 19006KT P6SM SKC

超过4000个机场的气象观测和天气预报(METAR&TAF报告)。

可查询的气象台以黄色和红色小点在地图上表示。

将鼠标移到小点上方,可查看气象台名称。

然后点击查看天气观测和预报。

如需切换地图:点击带黑十字的绿色按钮放大地图;点击带横线的绿色按钮缩小地图;或者点击绿色箭头查看邻近地区的地图。


METAR-TAF: